Time;durP1;ratioP1;P1;durP2;ratioP2;P2;SDS_P1;SDS_P2;PMS_P1;PMS_P2;Temp;Humidity;BMP_temperature;BMP_pressure;BME280_temperature;BME280_humidity;BME280_pressure;Samples;Min_cycle;Max_cycle;Signal;HPM_P1;HPM_P2
2021/06/19 00:00:09;;;;;;;1.77;1.25;;;;;;;;;;354803;27;1080;-67
2021/06/19 00:00:22;;;;;;;2.72;1.15;;;;;;;;;;353520;27;41013;-67
2021/06/19 00:00:35;;;;;;;2.75;1.10;;;;;;;;;;354748;27;1083;-68
2021/06/19 00:00:49;;;;;;;1.83;1.20;;;;;;;;;;354676;27;1085;-68
2021/06/19 00:01:01;;;;;;;1.95;1.30;;;;;;;;;;354391;27;16637;-69
2021/06/19 00:01:13;;;;;;;1.65;1.35;;;;;;;;;;354729;27;1080;-67
2021/06/19 00:01:26;;;;;;;1.80;1.25;;;;;;;;;;354910;27;1077;-68
2021/06/19 00:01:40;;;;;;;1.80;1.23;;;;;;;;;;354835;27;1105;-69
2021/06/19 00:01:52;;;;;;;2.30;1.27;;;;;;;;;;354871;27;1093;-68
2021/06/19 00:02:05;;;;;;;2.40;1.30;;;;;;;;;;354771;27;1219;-67
2021/06/19 00:02:17;;;;;;;3.42;1.30;;;;;;;;;;353320;27;1085;-67
2021/06/19 00:02:29;;;;;;;2.72;1.30;;;;;;;;;;353148;27;1064;-68
2021/06/19 00:02:42;;;;;;;2.75;1.20;;;;;;;;;;353236;27;1047;-68
2021/06/19 00:02:54;;;;;;;1.60;1.20;;;;;;;;;;353120;27;1899;-67
2021/06/19 00:03:07;;;;;;;2.10;1.40;;;;;;;;;;353337;27;1070;-68
2021/06/19 00:03:20;;;;;;;2.00;1.58;;;;;;;;;;353333;27;1440;-67
2021/06/19 00:03:32;;;;;;;3.00;1.55;;;;;;;;;;353491;27;1244;-68
2021/06/19 00:03:44;;;;;;;3.63;1.55;;;;;;;;;;353166;27;1462;-67
2021/06/19 00:03:57;;;;;;;2.53;1.33;;;;;;;;;;353397;27;1151;-68
2021/06/19 00:04:09;;;;;;;2.28;1.30;;;;;;;;;;353193;27;1247;-68
2021/06/19 00:04:22;;;;;;;1.80;1.30;;;;;;;;;;354448;27;1136;-67
2021/06/19 00:04:34;;;;;;;3.00;1.38;;;;;;;;;;354837;27;1159;-68
2021/06/19 00:04:46;;;;;;;2.83;1.30;;;;;;;;;;354965;27;1057;-69
2021/06/19 00:04:58;;;;;;;3.70;1.30;;;;;;;;;;354785;27;1526;-68
2021/06/19 00:05:11;;;;;;;3.10;1.20;;;;;;;;;;354902;27;1001;-68
2021/06/19 00:05:23;;;;;;;2.67;1.40;;;;;;;;;;354748;27;1289;-68
2021/06/19 00:05:35;;;;;;;2.17;1.45;;;;;;;;;;354853;27;1095;-71
2021/06/19 00:05:47;;;;;;;2.15;1.35;;;;;;;;;;354992;27;1088;-68
2021/06/19 00:05:59;;;;;;;2.38;1.30;;;;;;;;;;354835;27;1089;-67
2021/06/19 00:06:12;;;;;;;1.98;1.30;;;;;;;;;;354752;27;1096;-68
2021/06/19 00:06:24;;;;;;;1.27;1.08;;;;;;;;;;354944;27;1133;-69
2021/06/19 00:06:36;;;;;;;2.35;1.20;;;;;;;;;;354830;27;1080;-68
2021/06/19 00:06:48;;;;;;;2.70;1.25;;;;;;;;;;354760;27;1171;-68
2021/06/19 00:07:01;;;;;;;2.90;1.23;;;;;;;;;;354668;27;1333;-68
2021/06/19 00:07:13;;;;;;;2.75;1.33;;;;;;;;;;354865;27;1123;-68
2021/06/19 00:07:25;;;;;;;2.35;1.40;;;;;;;;;;354824;27;1094;-70
2021/06/19 00:07:38;;;;;;;1.85;1.38;;;;;;;;;;354754;27;1081;-68
2021/06/19 00:07:50;;;;;;;1.98;1.30;;;;;;;;;;354782;27;1201;-69
2021/06/19 00:08:03;;;;;;;1.80;1.23;;;;;;;;;;354663;27;1085;-68
2021/06/19 00:08:15;;;;;;;2.13;1.25;;;;;;;;;;355322;27;1052;-68
2021/06/19 00:08:28;;;;;;;2.28;1.30;;;;;;;;;;354888;27;1141;-67
2021/06/19 00:08:40;;;;;;;2.17;1.33;;;;;;;;;;354471;27;16020;-69
2021/06/19 00:08:53;;;;;;;2.03;1.50;;;;;;;;;;354744;27;1085;-68
2021/06/19 00:09:05;;;;;;;1.77;1.42;;;;;;;;;;354689;27;1219;-67
2021/06/19 00:09:17;;;;;;;1.73;1.42;;;;;;;;;;354916;27;1767;-68
2021/06/19 00:09:29;;;;;;;2.20;1.45;;;;;;;;;;354739;27;1054;-68
2021/06/19 00:09:41;;;;;;;1.95;1.40;;;;;;;;;;354931;27;988;-68
2021/06/19 00:09:53;;;;;;;1.80;1.30;;;;;;;;;;354717;27;1101;-68
2021/06/19 00:10:06;;;;;;;1.85;1.30;;;;;;;;;;354825;27;1079;-69
2021/06/19 00:10:19;;;;;;;2.25;1.30;;;;;;;;;;354221;27;17029;-70
2021/06/19 00:10:32;;;;;;;3.13;1.50;;;;;;;;;;354891;27;1160;-69
2021/06/19 00:10:44;;;;;;;3.60;1.70;;;;;;;;;;354916;27;1140;-68
2021/06/19 00:10:57;;;;;;;3.28;1.85;;;;;;;;;;354693;27;1192;-68
2021/06/19 00:11:09;;;;;;;3.03;1.88;;;;;;;;;;354700;27;1184;-68
2021/06/19 00:11:21;;;;;;;4.03;1.83;;;;;;;;;;354943;27;1128;-68
2021/06/19 00:11:33;;;;;;;3.65;1.80;;;;;;;;;;354971;27;1105;-68
2021/06/19 00:11:45;;;;;;;3.20;1.70;;;;;;;;;;354498;27;1110;-68
2021/06/19 00:11:58;;;;;;;3.22;1.80;;;;;;;;;;354791;27;1191;-70
2021/06/19 00:12:10;;;;;;;2.88;1.67;;;;;;;;;;354834;27;1184;-68
2021/06/19 00:12:23;;;;;;;1.83;1.50;;;;;;;;;;354897;27;1219;-68
2021/06/19 00:12:35;;;;;;;1.90;1.50;;;;;;;;;;354859;27;1087;-68
2021/06/19 00:12:48;;;;;;;2.20;1.50;;;;;;;;;;354777;27;1008;-70
2021/06/19 00:13:01;;;;;;;2.65;1.50;;;;;;;;;;354747;27;1156;-71
2021/06/19 00:13:13;;;;;;;2.78;1.60;;;;;;;;;;354638;27;1061;-67
2021/06/19 00:13:25;;;;;;;2.38;1.52;;;;;;;;;;354784;27;1110;-68
2021/06/19 00:13:37;;;;;;;1.70;1.50;;;;;;;;;;353463;27;1093;-68
2021/06/19 00:13:49;;;;;;;1.80;1.60;;;;;;;;;;353382;27;1060;-68
2021/06/19 00:14:01;;;;;;;1.80;1.65;;;;;;;;;;353415;27;1117;-69
2021/06/19 00:14:13;;;;;;;1.67;1.58;;;;;;;;;;353432;27;1291;-70
2021/06/19 00:14:26;;;;;;;1.60;1.50;;;;;;;;;;353474;28;975;-69
2021/06/19 00:14:38;;;;;;;2.55;1.40;;;;;;;;;;353280;27;961;-70
2021/06/19 00:14:50;;;;;;;3.30;1.45;;;;;;;;;;353694;27;1911;-69
2021/06/19 00:15:13;;;;;;;2.94;1.42;;;;;;;;;;353314;27;1050;-67
2021/06/19 00:15:25;;;;;;;2.95;1.52;;;;;;;;;;351241;27;62283;-68
2021/06/19 00:15:37;;;;;;;2.20;1.65;;;;;;;;;;353960;27;1117;-71
2021/06/19 00:15:49;;;;;;;2.72;1.70;;;;;;;;;;354866;27;1079;-68
2021/06/19 00:16:02;;;;;;;2.85;1.77;;;;;;;;;;354767;27;1061;-70
2021/06/19 00:16:14;;;;;;;3.78;1.60;;;;;;;;;;353499;27;1194;-68
2021/06/19 00:16:27;;;;;;;3.60;1.60;;;;;;;;;;353209;27;1301;-69
2021/06/19 00:16:39;;;;;;;3.22;1.73;;;;;;;;;;352709;27;17124;-67
2021/06/19 00:16:51;;;;;;;2.92;1.83;;;;;;;;;;353343;27;1105;-68
2021/06/19 00:17:04;;;;;;;2.60;1.80;;;;;;;;;;353451;27;1092;-67
2021/06/19 00:17:16;;;;;;;2.03;1.63;;;;;;;;;;353195;27;1304;-68
2021/06/19 00:17:28;;;;;;;2.22;1.40;;;;;;;;;;353298;27;1091;-69
2021/06/19 00:17:41;;;;;;;2.47;1.45;;;;;;;;;;353253;27;1155;-67
2021/06/19 00:17:54;;;;;;;2.00;1.67;;;;;;;;;;353179;27;1093;-67
2021/06/19 00:18:06;;;;;;;2.50;1.80;;;;;;;;;;353134;27;1164;-67
2021/06/19 00:18:18;;;;;;;2.75;1.83;;;;;;;;;;353364;27;1122;-68
2021/06/19 00:18:30;;;;;;;2.85;2.03;;;;;;;;;;353340;27;1032;-67
2021/06/19 00:18:42;;;;;;;2.47;1.98;;;;;;;;;;354407;27;1065;-68
2021/06/19 00:18:54;;;;;;;2.58;1.80;;;;;;;;;;354904;27;1109;-68
2021/06/19 00:19:06;;;;;;;2.45;1.60;;;;;;;;;;354776;27;1120;-68
2021/06/19 00:19:21;;;;;;;2.88;1.75;;;;;;;;;;354143;27;17072;-68
2021/06/19 00:19:33;;;;;;;2.85;1.65;;;;;;;;;;354818;27;1054;-68
2021/06/19 00:19:45;;;;;;;2.60;1.60;;;;;;;;;;354542;27;1072;-67
2021/06/19 00:19:58;;;;;;;2.08;1.65;;;;;;;;;;354710;27;1041;-68
2021/06/19 00:20:11;;;;;;;2.25;1.90;;;;;;;;;;354882;27;1345;-67
2021/06/19 00:20:25;;;;;;;2.70;1.90;;;;;;;;;;353477;27;39816;-70
2021/06/19 00:20:37;;;;;;;2.20;1.65;;;;;;;;;;354746;27;1132;-68
2021/06/19 00:20:50;;;;;;;2.92;1.70;;;;;;;;;;354693;27;1103;-68
2021/06/19 00:21:02;;;;;;;2.83;1.70;;;;;;;;;;354615;27;1108;-67
2021/06/19 00:21:14;;;;;;;2.78;1.73;;;;;;;;;;354809;27;1085;-68
2021/06/19 00:21:27;;;;;;;2.40;1.65;;;;;;;;;;354760;27;1084;-67
2021/06/19 00:21:41;;;;;;;1.75;1.50;;;;;;;;;;354869;27;1087;-68
2021/06/19 00:21:53;;;;;;;1.73;1.50;;;;;;;;;;354236;27;17261;-69
2021/06/19 00:22:06;;;;;;;2.58;1.60;;;;;;;;;;354688;27;1167;-67
2021/06/19 00:22:18;;;;;;;3.00;1.60;;;;;;;;;;354820;27;1160;-68
2021/06/19 00:22:30;;;;;;;2.70;1.52;;;;;;;;;;354781;27;1035;-71
2021/06/19 00:22:42;;;;;;;2.38;1.50;;;;;;;;;;354747;27;1058;-68
2021/06/19 00:22:54;;;;;;;2.30;1.55;;;;;;;;;;354834;27;1102;-70
2021/06/19 00:23:07;;;;;;;1.98;1.50;;;;;;;;;;354934;27;1440;-68
2021/06/19 00:23:19;;;;;;;1.75;1.48;;;;;;;;;;354768;27;1029;-68
2021/06/19 00:23:31;;;;;;;2.55;1.70;;;;;;;;;;354931;27;955;-67
2021/06/19 00:23:43;;;;;;;2.75;1.70;;;;;;;;;;354953;27;1104;-68
2021/06/19 00:23:55;;;;;;;3.00;1.60;;;;;;;;;;354654;27;1233;-68
2021/06/19 00:24:08;;;;;;;3.15;1.70;;;;;;;;;;354715;27;1954;-72
2021/06/19 00:24:23;;;;;;;2.50;1.83;;;;;;;;;;354813;27;1176;-68
2021/06/19 00:24:36;;;;;;;3.15;1.70;;;;;;;;;;353497;27;40086;-70
2021/06/19 00:24:48;;;;;;;4.40;1.63;;;;;;;;;;354943;27;1083;-67
2021/06/19 00:25:00;;;;;;;4.50;1.73;;;;;;;;;;354638;27;1172;-68
2021/06/19 00:25:13;;;;;;;4.30;1.80;;;;;;;;;;354746;27;1123;-68
2021/06/19 00:25:27;;;;;;;3.10;1.75;;;;;;;;;;354354;27;16136;-70
2021/06/19 00:25:39;;;;;;;2.75;1.63;;;;;;;;;;354857;27;1515;-68
2021/06/19 00:25:51;;;;;;;2.40;1.60;;;;;;;;;;354891;27;1186;-71
2021/06/19 00:26:03;;;;;;;2.64;1.80;;;;;;;;;;354747;27;1373;-68
2021/06/19 00:26:15;;;;;;;2.05;1.60;;;;;;;;;;354847;27;1172;-68
2021/06/19 00:26:27;;;;;;;1.75;1.48;;;;;;;;;;354779;27;1255;-69
2021/06/19 00:26:39;;;;;;;2.05;1.80;;;;;;;;;;354756;27;1211;-68
2021/06/19 00:26:52;;;;;;;2.38;1.90;;;;;;;;;;354826;27;1160;-68
2021/06/19 00:27:05;;;;;;;4.45;1.90;;;;;;;;;;354698;27;1038;-68
2021/06/19 00:27:17;;;;;;;4.93;1.70;;;;;;;;;;351794;28;1069;-68
2021/06/19 00:27:29;;;;;;;2.80;1.50;;;;;;;;;;352050;28;1188;-69
2021/06/19 00:27:41;;;;;;;2.17;1.42;;;;;;;;;;350371;28;1747;-68
2021/06/19 00:27:54;;;;;;;2.48;1.50;;;;;;;;;;348991;28;1076;-70
2021/06/19 00:28:07;;;;;;;2.65;1.65;;;;;;;;;;349039;28;1200;-68
2021/06/19 00:28:19;;;;;;;2.33;1.42;;;;;;;;;;349272;28;1021;-68
2021/06/19 00:28:31;;;;;;;2.45;1.48;;;;;;;;;;349071;28;1104;-68
2021/06/19 00:28:43;;;;;;;2.63;1.65;;;;;;;;;;349083;28;1067;-70
2021/06/19 00:28:55;;;;;;;2.92;1.80;;;;;;;;;;349245;28;1120;-68
2021/06/19 00:29:07;;;;;;;3.97;1.80;;;;;;;;;;349305;28;1164;-68
2021/06/19 00:29:19;;;;;;;2.92;1.60;;;;;;;;;;350674;28;1301;-68
2021/06/19 00:29:31;;;;;;;2.40;1.50;;;;;;;;;;351648;28;1059;-68
2021/06/19 00:29:44;;;;;;;2.63;1.50;;;;;;;;;;351063;28;982;-67
2021/06/19 00:29:56;;;;;;;3.80;1.50;;;;;;;;;;351487;28;1119;-69
2021/06/19 00:30:09;;;;;;;3.25;1.50;;;;;;;;;;351715;28;997;-68
2021/06/19 00:30:22;;;;;;;4.10;1.60;;;;;;;;;;351205;28;17073;-69
2021/06/19 00:30:35;;;;;;;3.22;1.65;;;;;;;;;;351879;28;982;-68
2021/06/19 00:30:47;;;;;;;2.20;1.60;;;;;;;;;;351888;28;1095;-68
2021/06/19 00:30:59;;;;;;;1.83;1.60;;;;;;;;;;351816;28;1097;-68
2021/06/19 00:31:11;;;;;;;2.00;1.55;;;;;;;;;;351910;28;1054;-68
2021/06/19 00:31:23;;;;;;;2.33;1.48;;;;;;;;;;351886;28;1088;-68
2021/06/19 00:31:35;;;;;;;2.45;1.38;;;;;;;;;;351830;28;1109;-70
2021/06/19 00:31:48;;;;;;;2.20;1.50;;;;;;;;;;353079;27;966;-70
2021/06/19 00:32:00;;;;;;;2.42;1.67;;;;;;;;;;354856;27;1178;-68
2021/06/19 00:32:12;;;;;;;3.03;1.80;;;;;;;;;;354739;27;986;-68
2021/06/19 00:32:24;;;;;;;3.05;1.63;;;;;;;;;;354674;27;1084;-69
2021/06/19 00:32:37;;;;;;;2.63;1.65;;;;;;;;;;354778;27;962;-70
2021/06/19 00:32:50;;;;;;;2.55;1.70;;;;;;;;;;355302;27;1270;-68
2021/06/19 00:33:03;;;;;;;2.78;1.63;;;;;;;;;;354838;27;1109;-67
2021/06/19 00:33:15;;;;;;;2.00;1.50;;;;;;;;;;354942;27;1124;-68
2021/06/19 00:33:27;;;;;;;2.40;1.60;;;;;;;;;;353207;27;1037;-68
2021/06/19 00:33:39;;;;;;;2.42;1.60;;;;;;;;;;353425;27;1057;-69
2021/06/19 00:33:51;;;;;;;3.50;1.70;;;;;;;;;;353211;27;1173;-68
2021/06/19 00:34:03;;;;;;;3.67;1.70;;;;;;;;;;353400;27;1013;-68
2021/06/19 00:34:15;;;;;;;3.13;1.60;;;;;;;;;;353533;27;1033;-69
2021/06/19 00:34:28;;;;;;;2.40;1.60;;;;;;;;;;353487;27;1090;-71
2021/06/19 00:34:40;;;;;;;2.25;1.52;;;;;;;;;;353311;27;977;-69
2021/06/19 00:34:52;;;;;;;2.50;1.58;;;;;;;;;;353186;27;1142;-69
2021/06/19 00:35:05;;;;;;;2.85;1.75;;;;;;;;;;353269;27;987;-68
2021/06/19 00:35:17;;;;;;;3.05;1.90;;;;;;;;;;353343;27;1163;-71
2021/06/19 00:35:29;;;;;;;2.15;1.73;;;;;;;;;;354052;27;1033;-71
2021/06/19 00:35:41;;;;;;;1.80;1.70;;;;;;;;;;354816;27;1105;-70
2021/06/19 00:35:53;;;;;;;1.63;1.52;;;;;;;;;;354718;27;1077;-69
2021/06/19 00:36:05;;;;;;;1.83;1.52;;;;;;;;;;354797;27;1072;-68
2021/06/19 00:36:18;;;;;;;2.53;1.60;;;;;;;;;;354608;27;1089;-69
2021/06/19 00:36:30;;;;;;;2.55;1.58;;;;;;;;;;354708;27;978;-70
2021/06/19 00:36:42;;;;;;;1.67;1.42;;;;;;;;;;354685;27;990;-68
2021/06/19 00:36:54;;;;;;;2.10;1.50;;;;;;;;;;354692;27;1097;-69
2021/06/19 00:37:06;;;;;;;2.20;1.40;;;;;;;;;;354703;27;1081;-69
2021/06/19 00:37:20;;;;;;;1.42;1.33;;;;;;;;;;354128;27;17803;-70
2021/06/19 00:37:33;;;;;;;1.65;1.40;;;;;;;;;;354786;27;1102;-68
2021/06/19 00:37:47;;;;;;;2.05;1.50;;;;;;;;;;353452;27;1278;-68
2021/06/19 00:37:59;;;;;;;2.42;1.50;;;;;;;;;;352797;27;16707;-68
2021/06/19 00:38:11;;;;;;;2.60;1.48;;;;;;;;;;353414;27;1205;-68
2021/06/19 00:38:24;;;;;;;3.05;1.50;;;;;;;;;;353340;27;997;-68
2021/06/19 00:38:36;;;;;;;2.45;1.60;;;;;;;;;;353405;27;1230;-70
2021/06/19 00:38:48;;;;;;;2.55;1.50;;;;;;;;;;353130;27;1245;-69
2021/06/19 00:39:00;;;;;;;2.10;1.45;;;;;;;;;;353433;27;1167;-69
2021/06/19 00:39:12;;;;;;;1.48;1.30;;;;;;;;;;353406;27;975;-68
2021/06/19 00:39:24;;;;;;;2.17;1.50;;;;;;;;;;353320;27;1148;-69
2021/06/19 00:39:36;;;;;;;2.22;1.50;;;;;;;;;;353049;27;1126;-69
2021/06/19 00:39:49;;;;;;;1.83;1.40;;;;;;;;;;354444;27;1109;-68
2021/06/19 00:40:11;;;;;;;2.40;1.40;;;;;;;;;;354854;27;1168;-68
2021/06/19 00:40:24;;;;;;;3.10;1.55;;;;;;;;;;352674;27;62168;-71
2021/06/19 00:40:36;;;;;;;2.67;1.60;;;;;;;;;;354861;27;1124;-68
2021/06/19 00:40:48;;;;;;;2.70;1.58;;;;;;;;;;354654;27;1076;-68
2021/06/19 00:41:01;;;;;;;2.67;1.58;;;;;;;;;;354768;27;1065;-68
2021/06/19 00:41:13;;;;;;;2.60;1.52;;;;;;;;;;354747;27;1065;-68
2021/06/19 00:41:26;;;;;;;2.13;1.52;;;;;;;;;;353372;27;1044;-68
2021/06/19 00:41:38;;;;;;;2.20;1.50;;;;;;;;;;353247;27;1180;-68
2021/06/19 00:41:50;;;;;;;2.72;1.40;;;;;;;;;;353375;27;1093;-69
2021/06/19 00:42:03;;;;;;;3.50;1.30;;;;;;;;;;353259;27;1191;-69
2021/06/19 00:42:22;;;;;;;3.30;1.30;;;;;;;;;;353699;27;1065;-68
2021/06/19 00:42:34;;;;;;;2.20;1.40;;;;;;;;;;351159;27;64136;-70
2021/06/19 00:43:00;;;;;;;2.65;1.50;;;;;;;;;;353227;27;1053;-68
2021/06/19 00:43:12;;;;;;;1.45;1.27;;;;;;;;;;349759;28;63351;-68
2021/06/19 00:43:24;;;;;;;1.40;1.30;;;;;;;;;;352494;27;1109;-68
2021/06/19 00:43:37;;;;;;;1.35;1.25;;;;;;;;;;353259;27;1154;-68
2021/06/19 00:43:49;;;;;;;1.70;1.30;;;;;;;;;;353156;27;998;-68
2021/06/19 00:44:02;;;;;;;2.85;1.40;;;;;;;;;;353365;27;1092;-69
2021/06/19 00:44:17;;;;;;;3.28;1.40;;;;;;;;;;353484;27;1100;-69
2021/06/19 00:44:29;;;;;;;2.70;1.40;;;;;;;;;;352707;27;17139;-70
2021/06/19 00:44:41;;;;;;;2.72;1.40;;;;;;;;;;353252;27;978;-68
2021/06/19 00:44:55;;;;;;;1.88;1.35;;;;;;;;;;353310;28;1073;-68
2021/06/19 00:45:07;;;;;;;1.38;1.23;;;;;;;;;;352807;27;16441;-68
2021/06/19 00:45:20;;;;;;;1.92;1.30;;;;;;;;;;354571;27;1229;-68
2021/06/19 00:45:34;;;;;;;1.80;1.30;;;;;;;;;;354926;27;1105;-69
2021/06/19 00:45:46;;;;;;;1.65;1.33;;;;;;;;;;354314;27;17820;-68
2021/06/19 00:45:59;;;;;;;2.70;1.40;;;;;;;;;;354932;27;1125;-68
2021/06/19 00:46:12;;;;;;;3.20;1.38;;;;;;;;;;354247;27;16627;-68
2021/06/19 00:46:24;;;;;;;2.75;1.40;;;;;;;;;;354855;27;1078;-70
2021/06/19 00:46:36;;;;;;;1.95;1.30;;;;;;;;;;353232;27;1057;-67
2021/06/19 00:46:54;;;;;;;3.38;1.30;;;;;;;;;;353369;27;1988;-68
2021/06/19 00:47:06;;;;;;;2.78;1.30;;;;;;;;;;351005;27;62907;-68
2021/06/19 00:47:18;;;;;;;1.80;1.30;;;;;;;;;;353143;27;1088;-68
2021/06/19 00:47:31;;;;;;;2.17;1.40;;;;;;;;;;353462;27;1085;-70
2021/06/19 00:47:43;;;;;;;1.78;1.30;;;;;;;;;;351747;28;1081;-68
2021/06/19 00:47:55;;;;;;;2.20;1.30;;;;;;;;;;352065;28;1103;-67
2021/06/19 00:48:08;;;;;;;2.40;1.27;;;;;;;;;;351613;28;1064;-67
2021/06/19 00:48:21;;;;;;;2.47;1.30;;;;;;;;;;349809;28;16218;-68
2021/06/19 00:48:33;;;;;;;2.47;1.30;;;;;;;;;;350674;28;978;-68
2021/06/19 00:48:46;;;;;;;3.33;1.50;;;;;;;;;;351932;28;1069;-68
2021/06/19 00:48:58;;;;;;;2.75;1.50;;;;;;;;;;351880;28;1054;-68
2021/06/19 00:49:10;;;;;;;2.28;1.35;;;;;;;;;;351814;28;1057;-68
2021/06/19 00:49:22;;;;;;;1.20;1.10;;;;;;;;;;351889;28;1152;-68
2021/06/19 00:49:35;;;;;;;1.13;1.02;;;;;;;;;;351886;28;1514;-68
2021/06/19 00:49:48;;;;;;;1.38;1.10;;;;;;;;;;351889;28;1152;-68
2021/06/19 00:50:00;;;;;;;2.00;1.27;;;;;;;;;;353124;27;1147;-68
2021/06/19 00:50:13;;;;;;;1.80;1.30;;;;;;;;;;353168;27;1156;-68
2021/06/19 00:50:26;;;;;;;2.28;1.38;;;;;;;;;;353275;27;1100;-68
2021/06/19 00:50:39;;;;;;;2.63;1.58;;;;;;;;;;353386;27;1185;-68
2021/06/19 00:50:51;;;;;;;3.42;1.58;;;;;;;;;;353268;27;1206;-69
2021/06/19 00:51:04;;;;;;;3.83;1.50;;;;;;;;;;353347;27;973;-70
2021/06/19 00:51:16;;;;;;;3.20;1.40;;;;;;;;;;352287;28;1062;-69
2021/06/19 00:51:28;;;;;;;2.42;1.40;;;;;;;;;;351938;28;1101;-68
2021/06/19 00:51:41;;;;;;;1.48;1.33;;;;;;;;;;351836;28;1085;-68
2021/06/19 00:51:53;;;;;;;1.42;1.30;;;;;;;;;;351744;28;1030;-69
2021/06/19 00:52:06;;;;;;;1.67;1.30;;;;;;;;;;353127;27;1164;-68
2021/06/19 00:52:20;;;;;;;1.90;1.40;;;;;;;;;;353750;27;1005;-68
2021/06/19 00:52:32;;;;;;;1.88;1.38;;;;;;;;;;353404;27;1168;-68
2021/06/19 00:52:45;;;;;;;1.85;1.27;;;;;;;;;;353296;27;1070;-69
2021/06/19 00:52:57;;;;;;;2.70;1.30;;;;;;;;;;353145;27;1073;-68
2021/06/19 00:53:09;;;;;;;2.90;1.40;;;;;;;;;;353413;27;1087;-68
2021/06/19 00:53:21;;;;;;;2.55;1.38;;;;;;;;;;354520;27;1160;-68
2021/06/19 00:53:34;;;;;;;2.72;1.50;;;;;;;;;;354770;27;1033;-69
2021/06/19 00:53:46;;;;;;;2.60;1.40;;;;;;;;;;353422;27;1065;-69
2021/06/19 00:53:58;;;;;;;1.92;1.38;;;;;;;;;;353281;27;1031;-68
2021/06/19 00:54:10;;;;;;;2.28;1.40;;;;;;;;;;353405;27;1088;-68
2021/06/19 00:54:22;;;;;;;1.80;1.40;;;;;;;;;;353304;27;1050;-68
2021/06/19 00:54:34;;;;;;;1.77;1.45;;;;;;;;;;353386;27;1102;-68
2021/06/19 00:54:47;;;;;;;1.55;1.40;;;;;;;;;;353165;27;1168;-68
2021/06/19 00:54:59;;;;;;;1.80;1.40;;;;;;;;;;353033;27;1081;-69
2021/06/19 00:55:11;;;;;;;2.20;1.35;;;;;;;;;;353382;27;1013;-68
2021/06/19 00:55:23;;;;;;;1.77;1.30;;;;;;;;;;353375;27;1101;-69
2021/06/19 00:55:35;;;;;;;1.95;1.25;;;;;;;;;;351838;28;1100;-69
2021/06/19 00:55:47;;;;;;;1.90;1.33;;;;;;;;;;352728;27;1130;-68
2021/06/19 00:56:03;;;;;;;3.20;1.40;;;;;;;;;;353131;27;1080;-68
2021/06/19 00:56:15;;;;;;;2.65;1.40;;;;;;;;;;351903;27;39072;-68
2021/06/19 00:56:27;;;;;;;2.22;1.33;;;;;;;;;;353119;27;993;-68
2021/06/19 00:56:40;;;;;;;2.30;1.40;;;;;;;;;;353234;27;1030;-69
2021/06/19 00:56:52;;;;;;;2.95;1.45;;;;;;;;;;353323;27;1021;-68
2021/06/19 00:57:05;;;;;;;3.45;1.45;;;;;;;;;;353066;27;1097;-68
2021/06/19 00:57:18;;;;;;;3.38;1.52;;;;;;;;;;353275;27;1160;-68
2021/06/19 00:57:31;;;;;;;3.10;1.60;;;;;;;;;;353091;27;1174;-69
2021/06/19 00:57:43;;;;;;;1.73;1.40;;;;;;;;;;354722;27;1053;-68
2021/06/19 00:57:56;;;;;;;1.40;1.30;;;;;;;;;;354796;27;1091;-69
2021/06/19 00:58:08;;;;;;;2.17;1.38;;;;;;;;;;354680;27;989;-71
2021/06/19 00:58:21;;;;;;;3.15;1.50;;;;;;;;;;354598;27;1262;-69
2021/06/19 00:58:33;;;;;;;3.30;1.50;;;;;;;;;;353363;27;1017;-70
2021/06/19 00:58:45;;;;;;;3.05;1.50;;;;;;;;;;353461;27;1088;-71
2021/06/19 00:58:58;;;;;;;2.53;1.48;;;;;;;;;;353386;27;1103;-70
2021/06/19 00:59:10;;;;;;;2.70;1.40;;;;;;;;;;353293;27;1101;-70
2021/06/19 00:59:22;;;;;;;2.70;1.48;;;;;;;;;;353260;27;1093;-67
2021/06/19 00:59:37;;;;;;;2.80;1.45;;;;;;;;;;353341;27;1081;-68
2021/06/19 00:59:49;;;;;;;1.80;1.38;;;;;;;;;;351091;27;63012;-68
2021/06/19 01:00:03;;;;;;;1.98;1.38;;;;;;;;;;353412;27;1097;-69
2021/06/19 01:00:16;;;;;;;1.92;1.50;;;;;;;;;;351364;28;16960;-70
2021/06/19 01:00:29;;;;;;;1.95;1.50;;;;;;;;;;351762;28;1136;-68
2021/06/19 01:00:41;;;;;;;1.67;1.42;;;;;;;;;;353375;27;1111;-68
2021/06/19 01:00:53;;;;;;;2.83;1.30;;;;;;;;;;353357;27;1096;-68
2021/06/19 01:01:05;;;;;;;3.08;1.38;;;;;;;;;;353333;27;1140;-68
2021/06/19 01:01:17;;;;;;;3.90;1.60;;;;;;;;;;353221;27;1101;-68
2021/06/19 01:01:29;;;;;;;2.65;1.70;;;;;;;;;;353341;27;1123;-68
2021/06/19 01:01:42;;;;;;;1.88;1.52;;;;;;;;;;353384;27;1089;-70
2021/06/19 01:01:54;;;;;;;2.28;1.60;;;;;;;;;;353401;27;1349;-71
2021/06/19 01:02:07;;;;;;;3.50;1.67;;;;;;;;;;353353;27;1168;-68
2021/06/19 01:02:19;;;;;;;3.08;1.60;;;;;;;;;;353308;27;982;-69
2021/06/19 01:02:31;;;;;;;2.13;1.48;;;;;;;;;;352910;27;1097;-68
2021/06/19 01:02:43;;;;;;;2.25;1.33;;;;;;;;;;353192;27;977;-68
2021/06/19 01:02:56;;;;;;;2.70;1.40;;;;;;;;;;353189;27;1145;-68
2021/06/19 01:03:08;;;;;;;3.30;1.60;;;;;;;;;;352783;27;1010;-69
2021/06/19 01:03:20;;;;;;;3.45;1.60;;;;;;;;;;353280;27;1146;-68
2021/06/19 01:03:33;;;;;;;3.00;1.65;;;;;;;;;;353323;28;1025;-68
2021/06/19 01:03:45;;;;;;;1.98;1.55;;;;;;;;;;353289;27;1127;-68
2021/06/19 01:03:57;;;;;;;2.28;1.65;;;;;;;;;;354453;27;1025;-69
2021/06/19 01:04:09;;;;;;;2.20;1.70;;;;;;;;;;354843;27;1155;-68
2021/06/19 01:04:22;;;;;;;2.67;1.52;;;;;;;;;;353271;28;1080;-68
2021/06/19 01:04:34;;;;;;;3.10;1.50;;;;;;;;;;353361;27;1094;-68
2021/06/19 01:04:46;;;;;;;2.92;1.60;;;;;;;;;;353377;27;1069;-68
2021/06/19 01:04:58;;;;;;;2.10;1.40;;;;;;;;;;353094;27;998;-68
2021/06/19 01:05:11;;;;;;;1.52;1.38;;;;;;;;;;353184;27;1107;-69
2021/06/19 01:05:24;;;;;;;2.47;1.50;;;;;;;;;;353238;27;1120;-68
2021/06/19 01:05:37;;;;;;;3.72;1.60;;;;;;;;;;352834;27;17019;-68
2021/06/19 01:05:50;;;;;;;3.63;1.70;;;;;;;;;;353311;27;1117;-68
2021/06/19 01:06:03;;;;;;;2.90;1.60;;;;;;;;;;352745;27;17251;-70
2021/06/19 01:06:15;;;;;;;2.97;1.50;;;;;;;;;;351904;28;1061;-68
2021/06/19 01:06:28;;;;;;;2.22;1.40;;;;;;;;;;353404;27;1286;-66
2021/06/19 01:06:40;;;;;;;3.25;1.52;;;;;;;;;;353662;27;1421;-69
2021/06/19 01:06:52;;;;;;;3.45;1.58;;;;;;;;;;353267;27;1065;-68
2021/06/19 01:07:04;;;;;;;2.22;1.50;;;;;;;;;;353105;27;1188;-70
2021/06/19 01:07:16;;;;;;;1.50;1.40;;;;;;;;;;353336;27;1334;-68
2021/06/19 01:07:28;;;;;;;1.60;1.35;;;;;;;;;;353379;27;1082;-68
2021/06/19 01:07:40;;;;;;;1.75;1.30;;;;;;;;;;353276;27;1918;-68
2021/06/19 01:07:54;;;;;;;2.50;1.40;;;;;;;;;;353027;27;1053;-68
2021/06/19 01:08:06;;;;;;;2.85;1.48;;;;;;;;;;352815;27;18105;-70
2021/06/19 01:08:18;;;;;;;2.03;1.48;;;;;;;;;;354306;27;1107;-68
2021/06/19 01:08:31;;;;;;;2.17;1.50;;;;;;;;;;354900;27;1099;-68
2021/06/19 01:08:43;;;;;;;2.08;1.60;;;;;;;;;;354675;27;1176;-68
2021/06/19 01:08:55;;;;;;;2.97;1.67;;;;;;;;;;354793;27;1100;-70
2021/06/19 01:09:08;;;;;;;3.58;1.60;;;;;;;;;;354652;27;1064;-68
2021/06/19 01:09:21;;;;;;;3.15;1.63;;;;;;;;;;354280;27;16297;-68
2021/06/19 01:09:33;;;;;;;2.50;1.55;;;;;;;;;;354700;27;1113;-69
2021/06/19 01:09:45;;;;;;;2.80;1.50;;;;;;;;;;354655;27;1026;-67
2021/06/19 01:09:57;;;;;;;2.50;1.55;;;;;;;;;;354739;27;1045;-68
2021/06/19 01:10:10;;;;;;;2.30;1.50;;;;;;;;;;354760;27;1152;-68
2021/06/19 01:10:22;;;;;;;2.28;1.42;;;;;;;;;;354703;27;1095;-68
2021/06/19 01:10:35;;;;;;;2.15;1.50;;;;;;;;;;354623;27;1108;-69
2021/06/19 01:10:47;;;;;;;2.58;1.60;;;;;;;;;;354943;27;1099;-71
2021/06/19 01:10:59;;;;;;;2.88;1.65;;;;;;;;;;354796;27;1064;-68
2021/06/19 01:11:11;;;;;;;2.97;1.60;;;;;;;;;;354664;27;1160;-68
2021/06/19 01:11:24;;;;;;;2.63;1.50;;;;;;;;;;354654;27;1097;-68
2021/06/19 01:11:39;;;;;;;2.15;1.50;;;;;;;;;;354830;27;1133;-70
2021/06/19 01:11:52;;;;;;;2.60;1.60;;;;;;;;;;352317;27;39729;-68
2021/06/19 01:12:06;;;;;;;3.08;1.50;;;;;;;;;;351788;27;39600;-68
2021/06/19 01:12:23;;;;;;;2.25;1.40;;;;;;;;;;353305;27;1021;-68
2021/06/19 01:12:36;;;;;;;1.73;1.50;;;;;;;;;;351134;27;62724;-68
2021/06/19 01:12:48;;;;;;;2.10;1.52;;;;;;;;;;353338;27;1083;-68
2021/06/19 01:13:01;;;;;;;2.30;1.50;;;;;;;;;;352156;28;2693;-68
2021/06/19 01:13:13;;;;;;;2.53;1.40;;;;;;;;;;351800;28;1408;-68
2021/06/19 01:13:25;;;;;;;2.20;1.48;;;;;;;;;;351792;28;1072;-68
2021/06/19 01:13:37;;;;;;;2.30;1.40;;;;;;;;;;351871;28;1197;-69
2021/06/19 01:13:50;;;;;;;1.73;1.40;;;;;;;;;;352173;27;1102;-68
2021/06/19 01:14:02;;;;;;;1.88;1.50;;;;;;;;;;353301;27;1086;-69
2021/06/19 01:14:15;;;;;;;2.50;1.60;;;;;;;;;;353295;27;1170;-68
2021/06/19 01:14:27;;;;;;;2.60;1.50;;;;;;;;;;353171;27;1097;-68
2021/06/19 01:14:39;;;;;;;2.53;1.48;;;;;;;;;;351829;28;982;-69
2021/06/19 01:14:52;;;;;;;2.92;1.50;;;;;;;;;;351806;28;1081;-68
2021/06/19 01:15:04;;;;;;;3.35;1.50;;;;;;;;;;352573;27;1072;-69
2021/06/19 01:15:17;;;;;;;3.05;1.50;;;;;;;;;;351627;28;1687;-68
2021/06/19 01:15:29;;;;;;;2.58;1.55;;;;;;;;;;351819;28;1288;-68
2021/06/19 01:15:41;;;;;;;2.33;1.58;;;;;;;;;;351761;28;1090;-68
2021/06/19 01:15:54;;;;;;;2.44;1.54;;;;;;;;;;351795;28;1130;-69
2021/06/19 01:16:21;;;;;;;3.00;1.67;;;;;;;;;;349667;28;62339;-71
2021/06/19 01:16:34;;;;;;;3.17;1.73;;;;;;;;;;351925;28;966;-69
2021/06/19 01:16:47;;;;;;;3.28;1.70;;;;;;;;;;353409;27;1093;-68
2021/06/19 01:17:00;;;;;;;2.70;1.60;;;;;;;;;;353284;27;1103;-68
2021/06/19 01:17:13;;;;;;;1.67;1.50;;;;;;;;;;353163;27;1060;-68
2021/06/19 01:17:26;;;;;;;1.90;1.52;;;;;;;;;;354338;27;18025;-70
2021/06/19 01:17:38;;;;;;;2.97;1.70;;;;;;;;;;354884;27;1148;-68
2021/06/19 01:17:50;;;;;;;3.05;1.50;;;;;;;;;;354733;27;1100;-67
2021/06/19 01:18:02;;;;;;;2.90;1.50;;;;;;;;;;354580;27;1085;-66